sensor_id;sensor_type;location;lat;lon;timestamp;P1;durP1;ratioP1;P2;durP2;ratioP2
19854;SDS011;10088;47.946;2.532;2023-05-29T00:01:48;5.70;;;4.70;;
19854;SDS011;10088;47.946;2.532;2023-05-29T00:04:13;9.00;;;4.90;;
19854;SDS011;10088;47.946;2.532;2023-05-29T00:06:38;9.37;;;4.87;;
19854;SDS011;10088;47.946;2.532;2023-05-29T00:09:04;8.17;;;4.77;;
19854;SDS011;10088;47.946;2.532;2023-05-29T00:11:29;9.43;;;5.40;;
19854;SDS011;10088;47.946;2.532;2023-05-29T00:13:55;8.27;;;5.50;;
19854;SDS011;10088;47.946;2.532;2023-05-29T00:16:21;9.03;;;5.80;;
19854;SDS011;10088;47.946;2.532;2023-05-29T00:18:48;10.77;;;5.53;;
19854;SDS011;10088;47.946;2.532;2023-05-29T00:21:13;7.03;;;5.30;;
19854;SDS011;10088;47.946;2.532;2023-05-29T00:23:39;8.60;;;5.80;;
19854;SDS011;10088;47.946;2.532;2023-05-29T00:26:04;10.80;;;4.87;;
19854;SDS011;10088;47.946;2.532;2023-05-29T00:28:29;8.70;;;5.10;;
19854;SDS011;10088;47.946;2.532;2023-05-29T00:30:55;6.60;;;5.03;;
19854;SDS011;10088;47.946;2.532;2023-05-29T00:33:20;8.63;;;5.27;;
19854;SDS011;10088;47.946;2.532;2023-05-29T00:35:45;10.43;;;5.40;;
19854;SDS011;10088;47.946;2.532;2023-05-29T00:38:10;7.60;;;5.53;;
19854;SDS011;10088;47.946;2.532;2023-05-29T00:40:36;10.07;;;5.73;;
19854;SDS011;10088;47.946;2.532;2023-05-29T00:43:01;8.97;;;5.33;;
19854;SDS011;10088;47.946;2.532;2023-05-29T00:45:27;6.80;;;5.07;;
19854;SDS011;10088;47.946;2.532;2023-05-29T00:47:52;14.33;;;6.47;;
19854;SDS011;10088;47.946;2.532;2023-05-29T00:50:19;14.37;;;6.47;;
19854;SDS011;10088;47.946;2.532;2023-05-29T00:52:46;8.13;;;5.40;;
19854;SDS011;10088;47.946;2.532;2023-05-29T00:55:11;7.83;;;5.07;;
19854;SDS011;10088;47.946;2.532;2023-05-29T00:57:36;10.60;;;6.33;;
19854;SDS011;10088;47.946;2.532;2023-05-29T01:00:04;8.60;;;5.57;;
19854;SDS011;10088;47.946;2.532;2023-05-29T01:02:31;8.23;;;5.67;;
19854;SDS011;10088;47.946;2.532;2023-05-29T01:04:57;10.80;;;7.30;;
19854;SDS011;10088;47.946;2.532;2023-05-29T01:07:22;9.03;;;5.57;;
19854;SDS011;10088;47.946;2.532;2023-05-29T01:09:47;10.93;;;5.60;;
19854;SDS011;10088;47.946;2.532;2023-05-29T01:12:19;9.30;;;5.80;;
19854;SDS011;10088;47.946;2.532;2023-05-29T01:17:34;8.77;;;6.10;;
19854;SDS011;10088;47.946;2.532;2023-05-29T01:27:29;9.43;;;6.27;;
19854;SDS011;10088;47.946;2.532;2023-05-29T01:29:55;8.70;;;6.10;;
19854;SDS011;10088;47.946;2.532;2023-05-29T01:32:21;13.47;;;6.27;;
19854;SDS011;10088;47.946;2.532;2023-05-29T01:34:47;14.57;;;7.00;;
19854;SDS011;10088;47.946;2.532;2023-05-29T01:37:12;8.53;;;6.00;;
19854;SDS011;10088;47.946;2.532;2023-05-29T01:39:38;10.63;;;5.93;;
19854;SDS011;10088;47.946;2.532;2023-05-29T01:42:04;7.97;;;5.97;;
19854;SDS011;10088;47.946;2.532;2023-05-29T01:44:30;9.00;;;6.23;;
19854;SDS011;10088;47.946;2.532;2023-05-29T01:46:56;9.37;;;6.83;;
19854;SDS011;10088;47.946;2.532;2023-05-29T01:49:22;10.40;;;6.57;;
19854;SDS011;10088;47.946;2.532;2023-05-29T01:51:48;10.10;;;6.30;;
19854;SDS011;10088;47.946;2.532;2023-05-29T01:54:13;8.37;;;6.13;;
19854;SDS011;10088;47.946;2.532;2023-05-29T01:56:39;9.07;;;6.40;;
19854;SDS011;10088;47.946;2.532;2023-05-29T01:59:04;10.13;;;6.40;;
19854;SDS011;10088;47.946;2.532;2023-05-29T02:01:31;10.53;;;5.90;;
19854;SDS011;10088;47.946;2.532;2023-05-29T02:03:56;12.10;;;6.30;;
19854;SDS011;10088;47.946;2.532;2023-05-29T02:06:21;9.37;;;6.20;;
19854;SDS011;10088;47.946;2.532;2023-05-29T02:08:46;10.03;;;6.70;;
19854;SDS011;10088;47.946;2.532;2023-05-29T02:11:12;11.53;;;6.93;;
19854;SDS011;10088;47.946;2.532;2023-05-29T02:13:37;10.30;;;6.30;;
19854;SDS011;10088;47.946;2.532;2023-05-29T02:16:02;12.97;;;6.73;;
19854;SDS011;10088;47.946;2.532;2023-05-29T02:18:28;9.13;;;5.90;;
19854;SDS011;10088;47.946;2.532;2023-05-29T02:20:53;11.73;;;6.37;;
19854;SDS011;10088;47.946;2.532;2023-05-29T02:23:18;10.17;;;6.23;;
19854;SDS011;10088;47.946;2.532;2023-05-29T02:25:44;8.83;;;6.70;;
19854;SDS011;10088;47.946;2.532;2023-05-29T02:28:09;11.40;;;6.07;;
19854;SDS011;10088;47.946;2.532;2023-05-29T02:30:35;12.80;;;6.57;;
19854;SDS011;10088;47.946;2.532;2023-05-29T02:33:00;9.13;;;5.97;;
19854;SDS011;10088;47.946;2.532;2023-05-29T02:35:26;11.87;;;6.80;;
19854;SDS011;10088;47.946;2.532;2023-05-29T02:37:51;12.33;;;6.73;;
19854;SDS011;10088;47.946;2.532;2023-05-29T02:40:17;11.00;;;6.63;;
19854;SDS011;10088;47.946;2.532;2023-05-29T02:42:42;11.70;;;7.33;;
19854;SDS011;10088;47.946;2.532;2023-05-29T02:45:08;10.00;;;6.47;;
19854;SDS011;10088;47.946;2.532;2023-05-29T02:47:34;9.40;;;7.00;;
19854;SDS011;10088;47.946;2.532;2023-05-29T02:49:59;11.47;;;6.87;;
19854;SDS011;10088;47.946;2.532;2023-05-29T02:52:24;12.53;;;6.80;;
19854;SDS011;10088;47.946;2.532;2023-05-29T02:54:50;9.53;;;6.77;;
19854;SDS011;10088;47.946;2.532;2023-05-29T02:57:15;11.10;;;6.73;;
19854;SDS011;10088;47.946;2.532;2023-05-29T02:59:40;8.70;;;6.37;;
19854;SDS011;10088;47.946;2.532;2023-05-29T03:02:06;13.03;;;6.97;;
19854;SDS011;10088;47.946;2.532;2023-05-29T03:04:31;9.13;;;6.63;;
19854;SDS011;10088;47.946;2.532;2023-05-29T03:06:56;10.27;;;6.77;;
19854;SDS011;10088;47.946;2.532;2023-05-29T03:09:21;11.07;;;6.40;;
19854;SDS011;10088;47.946;2.532;2023-05-29T03:11:47;11.30;;;6.80;;
19854;SDS011;10088;47.946;2.532;2023-05-29T03:14:16;11.50;;;6.27;;
19854;SDS011;10088;47.946;2.532;2023-05-29T03:16:41;12.67;;;7.17;;
19854;SDS011;10088;47.946;2.532;2023-05-29T03:19:06;10.20;;;6.60;;
19854;SDS011;10088;47.946;2.532;2023-05-29T03:21:32;18.63;;;7.53;;
19854;SDS011;10088;47.946;2.532;2023-05-29T03:23:58;9.77;;;6.87;;
19854;SDS011;10088;47.946;2.532;2023-05-29T03:26:23;10.17;;;6.77;;
19854;SDS011;10088;47.946;2.532;2023-05-29T03:28:48;13.57;;;6.80;;
19854;SDS011;10088;47.946;2.532;2023-05-29T03:31:13;14.13;;;7.17;;
19854;SDS011;10088;47.946;2.532;2023-05-29T03:33:39;11.33;;;7.10;;
19854;SDS011;10088;47.946;2.532;2023-05-29T03:36:04;11.33;;;6.63;;
19854;SDS011;10088;47.946;2.532;2023-05-29T03:38:30;10.80;;;7.17;;
19854;SDS011;10088;47.946;2.532;2023-05-29T03:40:55;9.83;;;6.20;;
19854;SDS011;10088;47.946;2.532;2023-05-29T03:43:20;11.07;;;7.00;;
19854;SDS011;10088;47.946;2.532;2023-05-29T03:45:46;12.23;;;7.27;;
19854;SDS011;10088;47.946;2.532;2023-05-29T03:48:11;16.77;;;7.63;;
19854;SDS011;10088;47.946;2.532;2023-05-29T03:50:36;9.20;;;6.83;;
19854;SDS011;10088;47.946;2.532;2023-05-29T03:53:02;14.17;;;7.33;;
19854;SDS011;10088;47.946;2.532;2023-05-29T03:55:27;14.73;;;7.33;;
19854;SDS011;10088;47.946;2.532;2023-05-29T03:57:53;11.57;;;6.50;;
19854;SDS011;10088;47.946;2.532;2023-05-29T04:00:18;9.40;;;6.50;;
19854;SDS011;10088;47.946;2.532;2023-05-29T04:02:43;10.13;;;6.43;;
19854;SDS011;10088;47.946;2.532;2023-05-29T04:05:09;10.93;;;7.00;;
19854;SDS011;10088;47.946;2.532;2023-05-29T04:07:35;9.73;;;6.90;;
19854;SDS011;10088;47.946;2.532;2023-05-29T04:10:04;11.27;;;6.73;;
19854;SDS011;10088;47.946;2.532;2023-05-29T04:12:29;11.63;;;7.00;;
19854;SDS011;10088;47.946;2.532;2023-05-29T04:14:55;9.83;;;6.23;;
19854;SDS011;10088;47.946;2.532;2023-05-29T04:17:20;9.97;;;6.67;;
19854;SDS011;10088;47.946;2.532;2023-05-29T04:19:45;12.33;;;6.80;;
19854;SDS011;10088;47.946;2.532;2023-05-29T04:22:11;11.77;;;7.00;;
19854;SDS011;10088;47.946;2.532;2023-05-29T04:24:36;8.50;;;6.50;;
19854;SDS011;10088;47.946;2.532;2023-05-29T04:27:01;14.63;;;7.07;;
19854;SDS011;10088;47.946;2.532;2023-05-29T04:29:28;11.90;;;6.77;;
19854;SDS011;10088;47.946;2.532;2023-05-29T04:31:53;11.17;;;6.70;;
19854;SDS011;10088;47.946;2.532;2023-05-29T04:34:20;9.93;;;6.70;;
19854;SDS011;10088;47.946;2.532;2023-05-29T04:36:45;11.20;;;6.63;;
19854;SDS011;10088;47.946;2.532;2023-05-29T04:39:11;10.73;;;6.90;;
19854;SDS011;10088;47.946;2.532;2023-05-29T04:41:36;12.37;;;6.50;;
19854;SDS011;10088;47.946;2.532;2023-05-29T04:44:03;9.67;;;6.63;;
19854;SDS011;10088;47.946;2.532;2023-05-29T04:46:29;9.90;;;6.47;;
19854;SDS011;10088;47.946;2.532;2023-05-29T04:48:54;8.90;;;6.50;;
19854;SDS011;10088;47.946;2.532;2023-05-29T04:51:20;10.90;;;7.00;;
19854;SDS011;10088;47.946;2.532;2023-05-29T04:53:46;13.10;;;7.00;;
19854;SDS011;10088;47.946;2.532;2023-05-29T04:56:11;9.40;;;6.70;;
19854;SDS011;10088;47.946;2.532;2023-05-29T04:58:37;8.47;;;6.50;;
19854;SDS011;10088;47.946;2.532;2023-05-29T05:01:02;14.97;;;6.40;;
19854;SDS011;10088;47.946;2.532;2023-05-29T05:03:28;9.03;;;5.57;;
19854;SDS011;10088;47.946;2.532;2023-05-29T05:05:53;9.57;;;6.97;;
19854;SDS011;10088;47.946;2.532;2023-05-29T05:08:18;9.17;;;5.97;;
19854;SDS011;10088;47.946;2.532;2023-05-29T05:10:44;10.23;;;6.37;;
19854;SDS011;10088;47.946;2.532;2023-05-29T05:13:09;8.50;;;5.73;;
19854;SDS011;10088;47.946;2.532;2023-05-29T05:15:36;7.80;;;6.10;;
19854;SDS011;10088;47.946;2.532;2023-05-29T05:18:01;11.53;;;6.47;;
19854;SDS011;10088;47.946;2.532;2023-05-29T05:20:26;11.07;;;6.57;;
19854;SDS011;10088;47.946;2.532;2023-05-29T05:22:51;12.27;;;6.33;;
19854;SDS011;10088;47.946;2.532;2023-05-29T05:25:17;9.47;;;5.93;;
19854;SDS011;10088;47.946;2.532;2023-05-29T05:27:42;8.53;;;5.97;;
19854;SDS011;10088;47.946;2.532;2023-05-29T05:30:07;12.60;;;6.30;;
19854;SDS011;10088;47.946;2.532;2023-05-29T05:32:33;10.30;;;6.07;;
19854;SDS011;10088;47.946;2.532;2023-05-29T05:34:58;11.73;;;5.73;;
19854;SDS011;10088;47.946;2.532;2023-05-29T05:37:23;9.80;;;5.83;;
19854;SDS011;10088;47.946;2.532;2023-05-29T05:39:49;10.20;;;6.03;;
19854;SDS011;10088;47.946;2.532;2023-05-29T05:42:15;9.17;;;4.90;;
19854;SDS011;10088;47.946;2.532;2023-05-29T05:44:41;9.23;;;5.40;;
19854;SDS011;10088;47.946;2.532;2023-05-29T05:47:06;9.97;;;5.00;;
19854;SDS011;10088;47.946;2.532;2023-05-29T05:49:31;7.73;;;5.13;;
19854;SDS011;10088;47.946;2.532;2023-05-29T05:51:56;9.40;;;5.00;;
19854;SDS011;10088;47.946;2.532;2023-05-29T05:54:21;8.00;;;4.90;;
19854;SDS011;10088;47.946;2.532;2023-05-29T05:56:47;10.40;;;5.50;;
19854;SDS011;10088;47.946;2.532;2023-05-29T05:59:12;8.40;;;4.83;;
19854;SDS011;10088;47.946;2.532;2023-05-29T06:01:37;7.63;;;4.97;;
19854;SDS011;10088;47.946;2.532;2023-05-29T06:04:03;8.80;;;4.70;;
19854;SDS011;10088;47.946;2.532;2023-05-29T06:06:29;10.10;;;5.60;;
19854;SDS011;10088;47.946;2.532;2023-05-29T06:08:56;9.70;;;4.80;;
19854;SDS011;10088;47.946;2.532;2023-05-29T06:11:21;6.63;;;4.50;;
19854;SDS011;10088;47.946;2.532;2023-05-29T06:13:47;8.73;;;4.93;;
19854;SDS011;10088;47.946;2.532;2023-05-29T06:16:12;7.30;;;4.97;;
19854;SDS011;10088;47.946;2.532;2023-05-29T06:18:37;10.10;;;4.73;;
19854;SDS011;10088;47.946;2.532;2023-05-29T06:21:03;8.53;;;4.53;;
19854;SDS011;10088;47.946;2.532;2023-05-29T06:23:28;9.50;;;4.57;;
19854;SDS011;10088;47.946;2.532;2023-05-29T06:25:53;8.57;;;4.40;;
19854;SDS011;10088;47.946;2.532;2023-05-29T06:28:18;8.17;;;4.70;;
19854;SDS011;10088;47.946;2.532;2023-05-29T06:30:44;8.87;;;4.83;;
19854;SDS011;10088;47.946;2.532;2023-05-29T06:33:09;7.70;;;5.00;;
19854;SDS011;10088;47.946;2.532;2023-05-29T06:35:34;7.70;;;4.63;;
19854;SDS011;10088;47.946;2.532;2023-05-29T06:37:59;6.53;;;4.60;;
19854;SDS011;10088;47.946;2.532;2023-05-29T06:40:25;7.43;;;4.57;;
19854;SDS011;10088;47.946;2.532;2023-05-29T06:42:50;7.93;;;4.50;;
19854;SDS011;10088;47.946;2.532;2023-05-29T06:45:16;12.10;;;5.00;;
19854;SDS011;10088;47.946;2.532;2023-05-29T06:47:44;7.17;;;4.40;;
19854;SDS011;10088;47.946;2.532;2023-05-29T06:50:10;8.70;;;3.90;;
19854;SDS011;10088;47.946;2.532;2023-05-29T06:52:35;6.37;;;4.00;;
19854;SDS011;10088;47.946;2.532;2023-05-29T06:55:01;7.67;;;4.40;;
19854;SDS011;10088;47.946;2.532;2023-05-29T06:57:26;6.80;;;4.40;;
19854;SDS011;10088;47.946;2.532;2023-05-29T06:59:51;6.37;;;4.07;;
19854;SDS011;10088;47.946;2.532;2023-05-29T07:02:16;7.67;;;4.23;;
19854;SDS011;10088;47.946;2.532;2023-05-29T07:04:42;5.53;;;4.00;;
19854;SDS011;10088;47.946;2.532;2023-05-29T07:07:07;6.70;;;4.30;;
19854;SDS011;10088;47.946;2.532;2023-05-29T07:09:32;7.63;;;4.37;;
19854;SDS011;10088;47.946;2.532;2023-05-29T07:11:58;9.23;;;4.70;;
19854;SDS011;10088;47.946;2.532;2023-05-29T07:14:23;10.93;;;4.50;;
19854;SDS011;10088;47.946;2.532;2023-05-29T07:16:48;7.67;;;3.97;;
19854;SDS011;10088;47.946;2.532;2023-05-29T07:19:13;9.83;;;4.17;;
19854;SDS011;10088;47.946;2.532;2023-05-29T07:21:39;10.03;;;4.10;;
19854;SDS011;10088;47.946;2.532;2023-05-29T07:24:04;7.40;;;3.83;;
19854;SDS011;10088;47.946;2.532;2023-05-29T07:26:30;6.07;;;3.73;;
19854;SDS011;10088;47.946;2.532;2023-05-29T07:28:56;8.20;;;4.20;;
19854;SDS011;10088;47.946;2.532;2023-05-29T07:31:21;9.80;;;4.40;;
19854;SDS011;10088;47.946;2.532;2023-05-29T07:33:46;8.13;;;3.63;;
19854;SDS011;10088;47.946;2.532;2023-05-29T07:36:11;5.23;;;3.63;;
19854;SDS011;10088;47.946;2.532;2023-05-29T07:38:37;9.67;;;3.93;;
19854;SDS011;10088;47.946;2.532;2023-05-29T07:41:02;9.97;;;4.03;;
19854;SDS011;10088;47.946;2.532;2023-05-29T07:43:28;7.70;;;4.47;;
19854;SDS011;10088;47.946;2.532;2023-05-29T07:45:53;11.13;;;3.97;;
19854;SDS011;10088;47.946;2.532;2023-05-29T07:48:18;5.23;;;3.53;;
19854;SDS011;10088;47.946;2.532;2023-05-29T07:50:44;5.93;;;3.70;;
19854;SDS011;10088;47.946;2.532;2023-05-29T07:53:09;6.67;;;4.07;;
19854;SDS011;10088;47.946;2.532;2023-05-29T07:55:34;5.10;;;3.60;;
19854;SDS011;10088;47.946;2.532;2023-05-29T07:58:00;5.73;;;3.80;;
19854;SDS011;10088;47.946;2.532;2023-05-29T08:00:26;6.33;;;4.33;;
19854;SDS011;10088;47.946;2.532;2023-05-29T08:02:53;7.53;;;3.70;;
19854;SDS011;10088;47.946;2.532;2023-05-29T08:05:18;8.63;;;4.30;;
19854;SDS011;10088;47.946;2.532;2023-05-29T08:07:44;7.53;;;3.33;;
19854;SDS011;10088;47.946;2.532;2023-05-29T08:10:09;7.70;;;3.80;;
19854;SDS011;10088;47.946;2.532;2023-05-29T08:12:35;6.37;;;3.97;;
19854;SDS011;10088;47.946;2.532;2023-05-29T08:15:01;5.50;;;3.27;;
19854;SDS011;10088;47.946;2.532;2023-05-29T08:17:26;6.10;;;3.60;;
19854;SDS011;10088;47.946;2.532;2023-05-29T08:19:52;6.73;;;3.77;;
19854;SDS011;10088;47.946;2.532;2023-05-29T08:22:18;7.50;;;3.77;;
19854;SDS011;10088;47.946;2.532;2023-05-29T08:24:43;9.37;;;3.53;;
19854;SDS011;10088;47.946;2.532;2023-05-29T08:27:08;12.80;;;5.33;;
19854;SDS011;10088;47.946;2.532;2023-05-29T08:29:33;7.50;;;3.80;;
19854;SDS011;10088;47.946;2.532;2023-05-29T08:31:59;9.63;;;4.57;;
19854;SDS011;10088;47.946;2.532;2023-05-29T08:34:24;6.80;;;3.70;;
19854;SDS011;10088;47.946;2.532;2023-05-29T08:36:50;5.87;;;3.37;;
19854;SDS011;10088;47.946;2.532;2023-05-29T08:39:16;7.63;;;3.73;;
19854;SDS011;10088;47.946;2.532;2023-05-29T08:41:49;44.07;;;9.77;;
19854;SDS011;10088;47.946;2.532;2023-05-29T08:44:16;7.60;;;4.07;;
19854;SDS011;10088;47.946;2.532;2023-05-29T08:46:46;11.07;;;3.97;;
19854;SDS011;10088;47.946;2.532;2023-05-29T08:49:11;10.07;;;4.00;;
19854;SDS011;10088;47.946;2.532;2023-05-29T08:51:38;7.90;;;3.83;;
19854;SDS011;10088;47.946;2.532;2023-05-29T08:54:05;6.13;;;3.63;;
19854;SDS011;10088;47.946;2.532;2023-05-29T08:56:31;8.27;;;4.10;;
19854;SDS011;10088;47.946;2.532;2023-05-29T08:58:56;6.23;;;3.97;;
19854;SDS011;10088;47.946;2.532;2023-05-29T09:01:22;7.93;;;4.03;;
19854;SDS011;10088;47.946;2.532;2023-05-29T09:03:48;10.80;;;4.50;;
19854;SDS011;10088;47.946;2.532;2023-05-29T09:06:13;6.20;;;3.33;;
19854;SDS011;10088;47.946;2.532;2023-05-29T09:08:39;8.40;;;4.30;;
19854;SDS011;10088;47.946;2.532;2023-05-29T09:11:04;6.90;;;3.60;;
19854;SDS011;10088;47.946;2.532;2023-05-29T09:13:30;6.17;;;3.53;;
19854;SDS011;10088;47.946;2.532;2023-05-29T09:15:58;5.93;;;3.40;;
19854;SDS011;10088;47.946;2.532;2023-05-29T09:18:28;5.63;;;3.47;;
19854;SDS011;10088;47.946;2.532;2023-05-29T09:20:53;7.60;;;4.00;;
19854;SDS011;10088;47.946;2.532;2023-05-29T09:23:18;8.17;;;3.80;;
19854;SDS011;10088;47.946;2.532;2023-05-29T09:25:43;5.63;;;3.37;;
19854;SDS011;10088;47.946;2.532;2023-05-29T09:28:09;7.13;;;3.80;;
19854;SDS011;10088;47.946;2.532;2023-05-29T09:30:35;6.47;;;3.60;;
19854;SDS011;10088;47.946;2.532;2023-05-29T09:33:01;7.53;;;3.90;;
19854;SDS011;10088;47.946;2.532;2023-05-29T09:35:33;6.27;;;4.43;;
19854;SDS011;10088;47.946;2.532;2023-05-29T09:37:59;7.40;;;4.10;;
19854;SDS011;10088;47.946;2.532;2023-05-29T09:40:24;5.70;;;3.60;;
19854;SDS011;10088;47.946;2.532;2023-05-29T09:42:50;5.97;;;3.67;;
19854;SDS011;10088;47.946;2.532;2023-05-29T09:45:18;5.97;;;4.27;;
19854;SDS011;10088;47.946;2.532;2023-05-29T09:47:45;7.97;;;3.90;;
19854;SDS011;10088;47.946;2.532;2023-05-29T09:50:19;6.50;;;3.30;;
19854;SDS011;10088;47.946;2.532;2023-05-29T09:52:47;7.47;;;3.67;;
19854;SDS011;10088;47.946;2.532;2023-05-29T09:55:17;5.40;;;3.37;;
19854;SDS011;10088;47.946;2.532;2023-05-29T09:57:44;7.27;;;3.40;;
19854;SDS011;10088;47.946;2.532;2023-05-29T10:00:11;8.70;;;3.70;;
19854;SDS011;10088;47.946;2.532;2023-05-29T10:02:38;5.77;;;3.47;;
19854;SDS011;10088;47.946;2.532;2023-05-29T10:05:05;6.70;;;3.50;;
19854;SDS011;10088;47.946;2.532;2023-05-29T10:07:31;5.53;;;3.57;;
19854;SDS011;10088;47.946;2.532;2023-05-29T10:10:06;5.47;;;3.73;;
19854;SDS011;10088;47.946;2.532;2023-05-29T10:12:37;5.43;;;3.47;;
19854;SDS011;10088;47.946;2.532;2023-05-29T10:15:05;6.37;;;3.43;;
19854;SDS011;10088;47.946;2.532;2023-05-29T10:17:32;5.70;;;3.20;;
19854;SDS011;10088;47.946;2.532;2023-05-29T10:19:58;8.63;;;3.60;;
19854;SDS011;10088;47.946;2.532;2023-05-29T10:22:26;5.43;;;3.10;;
19854;SDS011;10088;47.946;2.532;2023-05-29T10:24:52;5.53;;;3.80;;
19854;SDS011;10088;47.946;2.532;2023-05-29T10:27:18;7.10;;;3.40;;
19854;SDS011;10088;47.946;2.532;2023-05-29T10:29:46;7.27;;;3.83;;
19854;SDS011;10088;47.946;2.532;2023-05-29T10:32:25;8.33;;;3.40;;
19854;SDS011;10088;47.946;2.532;2023-05-29T10:39:53;7.57;;;3.67;;
19854;SDS011;10088;47.946;2.532;2023-05-29T10:45:02;5.53;;;3.53;;
19854;SDS011;10088;47.946;2.532;2023-05-29T10:47:28;8.53;;;4.00;;
19854;SDS011;10088;47.946;2.532;2023-05-29T10:49:53;6.90;;;3.50;;
19854;SDS011;10088;47.946;2.532;2023-05-29T10:52:24;7.33;;;4.00;;
19854;SDS011;10088;47.946;2.532;2023-05-29T10:54:50;7.37;;;3.43;;
19854;SDS011;10088;47.946;2.532;2023-05-29T10:57:16;5.97;;;3.43;;
19854;SDS011;10088;47.946;2.532;2023-05-29T10:59:41;8.00;;;3.60;;
19854;SDS011;10088;47.946;2.532;2023-05-29T11:02:06;7.27;;;3.50;;
19854;SDS011;10088;47.946;2.532;2023-05-29T11:04:33;5.30;;;3.30;;
19854;SDS011;10088;47.946;2.532;2023-05-29T11:06:59;6.73;;;3.53;;
19854;SDS011;10088;47.946;2.532;2023-05-29T11:15:18;6.17;;;3.50;;
19854;SDS011;10088;47.946;2.532;2023-05-29T11:17:31;5.00;;;3.30;;
19854;SDS011;10088;47.946;2.532;2023-05-29T11:19:57;5.47;;;3.50;;
19854;SDS011;10088;47.946;2.532;2023-05-29T11:22:25;5.13;;;3.00;;
19854;SDS011;10088;47.946;2.532;2023-05-29T11:24:52;5.97;;;3.40;;
19854;SDS011;10088;47.946;2.532;2023-05-29T11:27:18;6.13;;;3.80;;
19854;SDS011;10088;47.946;2.532;2023-05-29T11:29:43;5.77;;;3.13;;
19854;SDS011;10088;47.946;2.532;2023-05-29T11:32:11;6.73;;;3.60;;
19854;SDS011;10088;47.946;2.532;2023-05-29T11:34:39;6.97;;;3.30;;
19854;SDS011;10088;47.946;2.532;2023-05-29T11:37:05;6.83;;;5.30;;
19854;SDS011;10088;47.946;2.532;2023-05-29T11:39:30;8.10;;;3.77;;
19854;SDS011;10088;47.946;2.532;2023-05-29T11:41:56;6.00;;;3.93;;
19854;SDS011;10088;47.946;2.532;2023-05-29T11:44:25;5.40;;;3.30;;
19854;SDS011;10088;47.946;2.532;2023-05-29T11:47:05;10.10;;;3.60;;
19854;SDS011;10088;47.946;2.532;2023-05-29T11:49:32;5.03;;;3.43;;
19854;SDS011;10088;47.946;2.532;2023-05-29T11:52:20;7.13;;;3.60;;
19854;SDS011;10088;47.946;2.532;2023-05-29T11:54:47;7.10;;;3.97;;
19854;SDS011;10088;47.946;2.532;2023-05-29T11:57:19;4.97;;;3.50;;
19854;SDS011;10088;47.946;2.532;2023-05-29T11:59:45;13.30;;;4.13;;
19854;SDS011;10088;47.946;2.532;2023-05-29T12:02:10;8.43;;;3.40;;
19854;SDS011;10088;47.946;2.532;2023-05-29T12:04:36;6.80;;;3.53;;
19854;SDS011;10088;47.946;2.532;2023-05-29T12:07:01;4.27;;;3.27;;
19854;SDS011;10088;47.946;2.532;2023-05-29T12:09:27;5.20;;;3.70;;
19854;SDS011;10088;47.946;2.532;2023-05-29T12:11:53;5.30;;;3.37;;
19854;SDS011;10088;47.946;2.532;2023-05-29T12:14:19;7.50;;;3.50;;
19854;SDS011;10088;47.946;2.532;2023-05-29T12:16:44;6.23;;;3.73;;
19854;SDS011;10088;47.946;2.532;2023-05-29T12:19:10;5.53;;;3.10;;
19854;SDS011;10088;47.946;2.532;2023-05-29T12:21:35;7.60;;;3.30;;
19854;SDS011;10088;47.946;2.532;2023-05-29T12:24:02;7.13;;;3.30;;
19854;SDS011;10088;47.946;2.532;2023-05-29T12:26:27;5.73;;;3.20;;
19854;SDS011;10088;47.946;2.532;2023-05-29T12:28:54;5.50;;;3.20;;
19854;SDS011;10088;47.946;2.532;2023-05-29T12:31:27;4.33;;;3.10;;
19854;SDS011;10088;47.946;2.532;2023-05-29T12:33:53;5.93;;;3.03;;
19854;SDS011;10088;47.946;2.532;2023-05-29T12:36:18;5.07;;;3.27;;
19854;SDS011;10088;47.946;2.532;2023-05-29T12:38:50;7.00;;;3.40;;
19854;SDS011;10088;47.946;2.532;2023-05-29T12:41:29;8.07;;;3.20;;
19854;SDS011;10088;47.946;2.532;2023-05-29T12:43:57;7.63;;;3.20;;
19854;SDS011;10088;47.946;2.532;2023-05-29T12:46:24;5.10;;;3.60;;
19854;SDS011;10088;47.946;2.532;2023-05-29T12:48:49;5.63;;;3.20;;
19854;SDS011;10088;47.946;2.532;2023-05-29T12:51:15;6.20;;;3.33;;
19854;SDS011;10088;47.946;2.532;2023-05-29T12:53:40;4.93;;;2.63;;
19854;SDS011;10088;47.946;2.532;2023-05-29T12:56:05;8.37;;;3.70;;
19854;SDS011;10088;47.946;2.532;2023-05-29T12:58:30;6.17;;;3.60;;
19854;SDS011;10088;47.946;2.532;2023-05-29T13:00:56;5.10;;;3.40;;
19854;SDS011;10088;47.946;2.532;2023-05-29T13:03:21;5.93;;;3.30;;
19854;SDS011;10088;47.946;2.532;2023-05-29T13:05:48;4.73;;;2.80;;
19854;SDS011;10088;47.946;2.532;2023-05-29T13:08:14;4.73;;;3.47;;
19854;SDS011;10088;47.946;2.532;2023-05-29T13:10:39;4.77;;;3.30;;
19854;SDS011;10088;47.946;2.532;2023-05-29T13:13:04;9.40;;;3.77;;
19854;SDS011;10088;47.946;2.532;2023-05-29T13:15:29;5.67;;;3.23;;
19854;SDS011;10088;47.946;2.532;2023-05-29T13:17:57;5.77;;;3.27;;
19854;SDS011;10088;47.946;2.532;2023-05-29T13:20:23;7.53;;;3.20;;
19854;SDS011;10088;47.946;2.532;2023-05-29T13:22:48;8.60;;;3.47;;
19854;SDS011;10088;47.946;2.532;2023-05-29T13:25:14;7.73;;;3.30;;
19854;SDS011;10088;47.946;2.532;2023-05-29T13:27:43;7.97;;;3.27;;
19854;SDS011;10088;47.946;2.532;2023-05-29T13:30:09;5.33;;;3.17;;
19854;SDS011;10088;47.946;2.532;2023-05-29T13:32:35;5.20;;;3.40;;
19854;SDS011;10088;47.946;2.532;2023-05-29T13:35:01;9.93;;;3.03;;
19854;SDS011;10088;47.946;2.532;2023-05-29T13:37:26;4.87;;;3.03;;
19854;SDS011;10088;47.946;2.532;2023-05-29T13:39:55;5.20;;;3.50;;
19854;SDS011;10088;47.946;2.532;2023-05-29T13:42:20;6.10;;;3.23;;
19854;SDS011;10088;47.946;2.532;2023-05-29T13:44:46;6.23;;;3.20;;
19854;SDS011;10088;47.946;2.532;2023-05-29T13:47:11;5.27;;;3.40;;
19854;SDS011;10088;47.946;2.532;2023-05-29T13:49:36;4.87;;;3.37;;
19854;SDS011;10088;47.946;2.532;2023-05-29T13:52:02;6.23;;;3.60;;
19854;SDS011;10088;47.946;2.532;2023-05-29T13:54:28;5.20;;;3.03;;
19854;SDS011;10088;47.946;2.532;2023-05-29T13:57:00;5.30;;;3.50;;
19854;SDS011;10088;47.946;2.532;2023-05-29T13:59:26;6.73;;;3.30;;
19854;SDS011;10088;47.946;2.532;2023-05-29T14:01:52;6.27;;;3.60;;
19854;SDS011;10088;47.946;2.532;2023-05-29T14:04:17;6.72;;;3.15;;
19854;SDS011;10088;47.946;2.532;2023-05-29T14:06:42;6.80;;;3.80;;
19854;SDS011;10088;47.946;2.532;2023-05-29T14:09:07;6.33;;;3.53;;
19854;SDS011;10088;47.946;2.532;2023-05-29T14:11:36;7.72;;;3.40;;
19854;SDS011;10088;47.946;2.532;2023-05-29T14:14:02;5.53;;;2.85;;
19854;SDS011;10088;47.946;2.532;2023-05-29T14:16:27;8.70;;;3.35;;
19854;SDS011;10088;47.946;2.532;2023-05-29T14:18:53;5.43;;;3.40;;
19854;SDS011;10088;47.946;2.532;2023-05-29T14:21:18;5.25;;;3.30;;
19854;SDS011;10088;47.946;2.532;2023-05-29T14:23:45;6.20;;;2.95;;
19854;SDS011;10088;47.946;2.532;2023-05-29T14:26:11;4.07;;;2.97;;
19854;SDS011;10088;47.946;2.532;2023-05-29T14:28:36;8.13;;;3.17;;
19854;SDS011;10088;47.946;2.532;2023-05-29T14:31:02;5.07;;;3.23;;
19854;SDS011;10088;47.946;2.532;2023-05-29T14:33:27;5.23;;;3.37;;
19854;SDS011;10088;47.946;2.532;2023-05-29T14:35:52;3.50;;;3.00;;
19854;SDS011;10088;47.946;2.532;2023-05-29T14:38:17;4.28;;;3.10;;
19854;SDS011;10088;47.946;2.532;2023-05-29T14:40:43;5.85;;;3.00;;
19854;SDS011;10088;47.946;2.532;2023-05-29T14:43:08;10.23;;;3.13;;
19854;SDS011;10088;47.946;2.532;2023-05-29T14:45:33;7.13;;;3.65;;
19854;SDS011;10088;47.946;2.532;2023-05-29T14:47:58;6.30;;;3.20;;
19854;SDS011;10088;47.946;2.532;2023-05-29T14:50:24;6.15;;;3.10;;
19854;SDS011;10088;47.946;2.532;2023-05-29T14:52:50;5.93;;;2.70;;
19854;SDS011;10088;47.946;2.532;2023-05-29T14:55:15;7.95;;;3.80;;
19854;SDS011;10088;47.946;2.532;2023-05-29T14:57:41;6.10;;;3.40;;
19854;SDS011;10088;47.946;2.532;2023-05-29T15:00:06;6.85;;;3.53;;
19854;SDS011;10088;47.946;2.532;2023-05-29T15:02:32;4.53;;;3.35;;